sensor_id;sensor_type;location;lat;lon;timestamp;pressure;altitude;pressure_sealevel;temperature;humidity
4392;BME280;2210;51.938;8.488;2022-09-13T00:00:52;99973.06;;;16.60;96.38
4392;BME280;2210;51.938;8.488;2022-09-13T00:04:53;99977.69;;;16.69;96.89
4392;BME280;2210;51.938;8.488;2022-09-13T00:08:53;99977.41;;;16.71;94.74
4392;BME280;2210;51.938;8.488;2022-09-13T00:12:54;99974.28;;;16.78;96.79
4392;BME280;2210;51.938;8.488;2022-09-13T00:16:54;99975.69;;;16.75;95.33
4392;BME280;2210;51.938;8.488;2022-09-13T00:21:04;99969.66;;;16.68;95.83
4392;BME280;2210;51.938;8.488;2022-09-13T00:25:05;99963.75;;;16.75;96.48
4392;BME280;2210;51.938;8.488;2022-09-13T00:29:05;99950.72;;;16.70;95.60
4392;BME280;2210;51.938;8.488;2022-09-13T00:33:05;99950.41;;;16.72;95.88
4392;BME280;2210;51.938;8.488;2022-09-13T00:37:06;99939.66;;;16.60;97.18
4392;BME280;2210;51.938;8.488;2022-09-13T00:41:09;99937.50;;;16.51;97.91
4392;BME280;2210;51.938;8.488;2022-09-13T00:49:19;99926.13;;;16.48;98.32
4392;BME280;2210;51.938;8.488;2022-09-13T00:53:25;99927.47;;;16.56;97.02
4392;BME280;2210;51.938;8.488;2022-09-13T00:57:31;99929.72;;;16.54;98.78
4392;BME280;2210;51.938;8.488;2022-09-13T01:01:39;99920.16;;;16.65;98.32
4392;BME280;2210;51.938;8.488;2022-09-13T01:05:44;99924.91;;;16.30;99.66
4392;BME280;2210;51.938;8.488;2022-09-13T01:09:47;99914.84;;;16.34;100.00
4392;BME280;2210;51.938;8.488;2022-09-13T01:13:50;99900.31;;;16.08;100.00
4392;BME280;2210;51.938;8.488;2022-09-13T01:17:51;99902.16;;;16.23;100.00
4392;BME280;2210;51.938;8.488;2022-09-13T01:22:20;99898.16;;;16.34;100.00
4392;BME280;2210;51.938;8.488;2022-09-13T01:26:41;99898.41;;;16.38;100.00
4392;BME280;2210;51.938;8.488;2022-09-13T01:35:52;99895.59;;;16.08;100.00
4392;BME280;2210;51.938;8.488;2022-09-13T01:44:38;99882.84;;;16.02;100.00
4392;BME280;2210;51.938;8.488;2022-09-13T01:48:59;99885.81;;;16.16;100.00
4392;BME280;2210;51.938;8.488;2022-09-13T01:57:15;99895.97;;;16.31;100.00
4392;BME280;2210;51.938;8.488;2022-09-13T02:01:32;99892.00;;;16.37;100.00
4392;BME280;2210;51.938;8.488;2022-09-13T02:05:46;99899.50;;;16.42;100.00
4392;BME280;2210;51.938;8.488;2022-09-13T02:09:49;99901.38;;;16.46;100.00
4392;BME280;2210;51.938;8.488;2022-09-13T02:13:59;99902.31;;;16.37;100.00
4392;BME280;2210;51.938;8.488;2022-09-13T02:18:10;99895.34;;;16.39;100.00
4392;BME280;2210;51.938;8.488;2022-09-13T02:22:15;99897.03;;;16.35;100.00
4392;BME280;2210;51.938;8.488;2022-09-13T02:26:20;99889.72;;;16.44;100.00
4392;BME280;2210;51.938;8.488;2022-09-13T02:30:23;99892.63;;;16.29;100.00
4392;BME280;2210;51.938;8.488;2022-09-13T02:34:31;99895.47;;;16.24;100.00
4392;BME280;2210;51.938;8.488;2022-09-13T02:38:43;99899.56;;;16.31;100.00
4392;BME280;2210;51.938;8.488;2022-09-13T02:42:51;99897.56;;;16.37;100.00
4392;BME280;2210;51.938;8.488;2022-09-13T02:46:58;99897.09;;;16.30;100.00
4392;BME280;2210;51.938;8.488;2022-09-13T02:51:07;99900.94;;;16.34;100.00
4392;BME280;2210;51.938;8.488;2022-09-13T02:55:29;99894.41;;;16.49;100.00
4392;BME280;2210;51.938;8.488;2022-09-13T02:59:32;99885.75;;;16.50;100.00
4392;BME280;2210;51.938;8.488;2022-09-13T03:03:33;99882.41;;;16.54;100.00
4392;BME280;2210;51.938;8.488;2022-09-13T03:07:33;99891.31;;;16.50;100.00
4392;BME280;2210;51.938;8.488;2022-09-13T03:11:59;99892.00;;;16.37;100.00
4392;BME280;2210;51.938;8.488;2022-09-13T03:16:32;99889.78;;;16.39;100.00
4392;BME280;2210;51.938;8.488;2022-09-13T03:21:00;99878.66;;;16.39;100.00
4392;BME280;2210;51.938;8.488;2022-09-13T03:29:23;99873.91;;;16.40;100.00
4392;BME280;2210;51.938;8.488;2022-09-13T03:33:41;99877.13;;;16.52;100.00
4392;BME280;2210;51.938;8.488;2022-09-13T03:37:52;99869.97;;;16.46;100.00
4392;BME280;2210;51.938;8.488;2022-09-13T03:41:59;99867.78;;;16.43;100.00
4392;BME280;2210;51.938;8.488;2022-09-13T03:46:05;99865.84;;;16.38;100.00
4392;BME280;2210;51.938;8.488;2022-09-13T03:50:09;99854.97;;;16.42;100.00
4392;BME280;2210;51.938;8.488;2022-09-13T03:54:17;99855.19;;;16.45;100.00
4392;BME280;2210;51.938;8.488;2022-09-13T03:58:19;99861.00;;;16.49;100.00
4392;BME280;2210;51.938;8.488;2022-09-13T04:02:21;99849.06;;;16.48;100.00
4392;BME280;2210;51.938;8.488;2022-09-13T04:06:22;99840.47;;;16.45;100.00
4392;BME280;2210;51.938;8.488;2022-09-13T04:10:22;99846.34;;;16.43;100.00
4392;BME280;2210;51.938;8.488;2022-09-13T04:14:23;99855.78;;;16.42;100.00
4392;BME280;2210;51.938;8.488;2022-09-13T04:18:25;99863.63;;;16.40;100.00
4392;BME280;2210;51.938;8.488;2022-09-13T04:22:26;99858.06;;;16.40;100.00
4392;BME280;2210;51.938;8.488;2022-09-13T04:26:26;99865.59;;;16.34;100.00
4392;BME280;2210;51.938;8.488;2022-09-13T04:44:40;99872.59;;;16.32;100.00
4392;BME280;2210;51.938;8.488;2022-09-13T04:48:41;99865.38;;;16.31;100.00
4392;BME280;2210;51.938;8.488;2022-09-13T04:52:41;99873.03;;;16.44;100.00
4392;BME280;2210;51.938;8.488;2022-09-13T04:56:42;99873.06;;;16.39;100.00
4392;BME280;2210;51.938;8.488;2022-09-13T05:00:43;99870.28;;;16.39;100.00
4392;BME280;2210;51.938;8.488;2022-09-13T05:04:43;99866.97;;;16.37;100.00
4392;BME280;2210;51.938;8.488;2022-09-13T05:08:53;99862.53;;;16.36;100.00
4392;BME280;2210;51.938;8.488;2022-09-13T05:12:54;99867.44;;;16.49;100.00
4392;BME280;2210;51.938;8.488;2022-09-13T05:16:54;99871.97;;;16.40;100.00
4392;BME280;2210;51.938;8.488;2022-09-13T05:20:55;99882.53;;;16.38;100.00
4392;BME280;2210;51.938;8.488;2022-09-13T05:24:56;99873.91;;;16.40;100.00
4392;BME280;2210;51.938;8.488;2022-09-13T05:28:57;99873.06;;;16.39;100.00
4392;BME280;2210;51.938;8.488;2022-09-13T05:32:58;99869.09;;;16.45;100.00
4392;BME280;2210;51.938;8.488;2022-09-13T05:36:58;99871.88;;;16.45;100.00
4392;BME280;2210;51.938;8.488;2022-09-13T05:41:00;99862.97;;;16.48;100.00
4392;BME280;2210;51.938;8.488;2022-09-13T05:45:01;99860.41;;;16.52;100.00
4392;BME280;2210;51.938;8.488;2022-09-13T05:49:01;99864.56;;;16.55;100.00
4392;BME280;2210;51.938;8.488;2022-09-13T05:53:02;99865.00;;;16.43;100.00
4392;BME280;2210;51.938;8.488;2022-09-13T05:57:02;99864.66;;;16.49;100.00
4392;BME280;2210;51.938;8.488;2022-09-13T06:01:03;99860.06;;;16.59;100.00
4392;BME280;2210;51.938;8.488;2022-09-13T06:05:03;99855.06;;;16.61;100.00
4392;BME280;2210;51.938;8.488;2022-09-13T06:09:04;99871.38;;;16.73;100.00
4392;BME280;2210;51.938;8.488;2022-09-13T06:13:05;99874.41;;;16.71;100.00
4392;BME280;2210;51.938;8.488;2022-09-13T06:17:06;99873.72;;;16.84;100.00
4392;BME280;2210;51.938;8.488;2022-09-13T06:21:09;99875.38;;;16.85;100.00
4392;BME280;2210;51.938;8.488;2022-09-13T06:25:10;99871.16;;;16.93;100.00
4392;BME280;2210;51.938;8.488;2022-09-13T06:29:10;99874.06;;;17.07;100.00
4392;BME280;2210;51.938;8.488;2022-09-13T06:33:10;99880.88;;;17.20;100.00
4392;BME280;2210;51.938;8.488;2022-09-13T06:37:11;99876.06;;;17.26;100.00
4392;BME280;2210;51.938;8.488;2022-09-13T06:41:17;99875.34;;;17.39;100.00
4392;BME280;2210;51.938;8.488;2022-09-13T06:45:17;99883.72;;;17.77;100.00
4392;BME280;2210;51.938;8.488;2022-09-13T06:49:18;99884.53;;;17.78;100.00
4392;BME280;2210;51.938;8.488;2022-09-13T06:53:18;99880.31;;;17.61;100.00
4392;BME280;2210;51.938;8.488;2022-09-13T06:57:19;99879.09;;;17.67;100.00
4392;BME280;2210;51.938;8.488;2022-09-13T07:01:22;99880.94;;;17.96;100.00
4392;BME280;2210;51.938;8.488;2022-09-13T07:05:23;99878.97;;;18.30;100.00
4392;BME280;2210;51.938;8.488;2022-09-13T07:09:23;99877.16;;;18.39;100.00
4392;BME280;2210;51.938;8.488;2022-09-13T07:13:23;99874.53;;;18.62;96.91
4392;BME280;2210;51.938;8.488;2022-09-13T07:17:23;99873.00;;;18.36;97.11
4392;BME280;2210;51.938;8.488;2022-09-13T07:21:25;99882.66;;;18.44;99.16
4392;BME280;2210;51.938;8.488;2022-09-13T07:25:26;99884.19;;;18.36;99.81
4392;BME280;2210;51.938;8.488;2022-09-13T07:29:26;99883.34;;;18.36;100.00
4392;BME280;2210;51.938;8.488;2022-09-13T07:33:26;99884.22;;;18.50;100.00
4392;BME280;2210;51.938;8.488;2022-09-13T07:37:26;99888.31;;;18.72;99.66
4392;BME280;2210;51.938;8.488;2022-09-13T07:41:28;99889.22;;;18.81;100.00
4392;BME280;2210;51.938;8.488;2022-09-13T07:45:29;99890.06;;;18.82;99.41
4392;BME280;2210;51.938;8.488;2022-09-13T07:49:29;99888.44;;;18.95;98.35
4392;BME280;2210;51.938;8.488;2022-09-13T07:53:31;99895.28;;;18.89;96.14
4392;BME280;2210;51.938;8.488;2022-09-13T07:57:32;99891.38;;;19.03;96.33
4392;BME280;2210;51.938;8.488;2022-09-13T08:01:35;99890.31;;;19.13;96.66
4392;BME280;2210;51.938;8.488;2022-09-13T08:05:39;99889.25;;;19.37;95.17
4392;BME280;2210;51.938;8.488;2022-09-13T08:09:40;99895.47;;;19.34;94.90
4392;BME280;2210;51.938;8.488;2022-09-13T08:13:40;99887.72;;;19.31;92.94
4392;BME280;2210;51.938;8.488;2022-09-13T08:17:41;99897.25;;;19.30;93.51
4392;BME280;2210;51.938;8.488;2022-09-13T08:21:42;99903.69;;;19.30;92.80
4392;BME280;2210;51.938;8.488;2022-09-13T08:25:44;99909.06;;;19.27;92.34
4392;BME280;2210;51.938;8.488;2022-09-13T08:29:44;99908.97;;;19.32;92.65
4392;BME280;2210;51.938;8.488;2022-09-13T08:33:46;99913.38;;;19.33;93.43
4392;BME280;2210;51.938;8.488;2022-09-13T08:37:47;99916.59;;;19.40;93.40
4392;BME280;2210;51.938;8.488;2022-09-13T08:42:03;99923.00;;;19.41;93.18
4392;BME280;2210;51.938;8.488;2022-09-13T08:46:23;99929.47;;;19.41;92.36
4392;BME280;2210;51.938;8.488;2022-09-13T08:50:28;99930.66;;;19.49;93.69
4392;BME280;2210;51.938;8.488;2022-09-13T08:54:29;99919.81;;;19.47;91.80
4392;BME280;2210;51.938;8.488;2022-09-13T09:03:03;99915.88;;;19.48;92.16
4392;BME280;2210;51.938;8.488;2022-09-13T09:07:19;99916.91;;;19.52;92.52
4392;BME280;2210;51.938;8.488;2022-09-13T09:11:43;99912.34;;;19.57;93.65
4392;BME280;2210;51.938;8.488;2022-09-13T09:15:50;99908.19;;;19.54;91.45
4392;BME280;2210;51.938;8.488;2022-09-13T09:20:02;99907.88;;;19.55;92.88
4392;BME280;2210;51.938;8.488;2022-09-13T09:24:14;99904.66;;;19.62;92.02
4392;BME280;2210;51.938;8.488;2022-09-13T09:28:20;99906.09;;;19.60;92.85
4392;BME280;2210;51.938;8.488;2022-09-13T09:36:39;99897.94;;;19.63;90.81
4392;BME280;2210;51.938;8.488;2022-09-13T09:40:45;99906.81;;;19.65;91.82
4392;BME280;2210;51.938;8.488;2022-09-13T09:44:51;99914.91;;;19.67;94.28
4392;BME280;2210;51.938;8.488;2022-09-13T09:48:55;99914.06;;;19.66;94.13
4392;BME280;2210;51.938;8.488;2022-09-13T09:53:11;99911.16;;;19.71;94.44
4392;BME280;2210;51.938;8.488;2022-09-13T09:57:17;99915.09;;;19.84;93.18
4392;BME280;2210;51.938;8.488;2022-09-13T10:05:25;99914.34;;;19.79;93.23
4392;BME280;2210;51.938;8.488;2022-09-13T10:09:25;99912.81;;;19.86;95.11
4392;BME280;2210;51.938;8.488;2022-09-13T10:13:28;99903.28;;;19.87;95.68
4392;BME280;2210;51.938;8.488;2022-09-13T10:17:29;99912.81;;;19.86;96.05
4392;BME280;2210;51.938;8.488;2022-09-13T10:21:29;99908.84;;;20.01;96.78
4392;BME280;2210;51.938;8.488;2022-09-13T10:25:29;99904.47;;;20.09;98.08
4392;BME280;2210;51.938;8.488;2022-09-13T10:29:30;99909.47;;;20.21;97.79
4392;BME280;2210;51.938;8.488;2022-09-13T10:33:38;99907.78;;;20.34;99.24
4392;BME280;2210;51.938;8.488;2022-09-13T10:37:42;99892.47;;;20.40;100.00
4392;BME280;2210;51.938;8.488;2022-09-13T10:45:49;99896.69;;;20.29;100.00
4392;BME280;2210;51.938;8.488;2022-09-13T10:49:52;99885.88;;;20.36;100.00
4392;BME280;2210;51.938;8.488;2022-09-13T10:54:29;99894.81;;;20.47;100.00
4392;BME280;2210;51.938;8.488;2022-09-13T10:58:29;99893.50;;;20.44;100.00
4392;BME280;2210;51.938;8.488;2022-09-13T11:06:50;99899.84;;;20.59;100.00
4392;BME280;2210;51.938;8.488;2022-09-13T11:11:21;99895.34;;;20.71;100.00
4392;BME280;2210;51.938;8.488;2022-09-13T11:15:38;99893.38;;;20.72;98.45
4392;BME280;2210;51.938;8.488;2022-09-13T11:24:26;99891.81;;;20.88;98.78
4392;BME280;2210;51.938;8.488;2022-09-13T11:28:46;99897.91;;;20.91;99.54
4392;BME280;2210;51.938;8.488;2022-09-13T11:46:45;99893.69;;;20.70;100.00
4392;BME280;2210;51.938;8.488;2022-09-13T11:51:25;99892.25;;;20.82;100.00
4392;BME280;2210;51.938;8.488;2022-09-13T11:55:34;99885.53;;;20.92;100.00
4392;BME280;2210;51.938;8.488;2022-09-13T11:59:40;99880.72;;;20.83;100.00
4392;BME280;2210;51.938;8.488;2022-09-13T12:08:32;99865.91;;;21.32;100.00
4392;BME280;2210;51.938;8.488;2022-09-13T12:12:35;99866.56;;;21.29;98.92
4392;BME280;2210;51.938;8.488;2022-09-13T12:16:40;99859.28;;;21.28;100.00
4392;BME280;2210;51.938;8.488;2022-09-13T12:20:47;99862.44;;;21.26;99.44
4392;BME280;2210;51.938;8.488;2022-09-13T12:24:52;99857.78;;;21.13;100.00
4392;BME280;2210;51.938;8.488;2022-09-13T12:29:06;99855.47;;;21.15;100.00
4392;BME280;2210;51.938;8.488;2022-09-13T12:33:13;99855.09;;;21.08;100.00
4392;BME280;2210;51.938;8.488;2022-09-13T12:46:13;99841.09;;;21.08;100.00
4392;BME280;2210;51.938;8.488;2022-09-13T12:50:26;99853.63;;;21.10;100.00
4392;BME280;2210;51.938;8.488;2022-09-13T12:54:38;99861.72;;;21.12;100.00
4392;BME280;2210;51.938;8.488;2022-09-13T13:07:19;99849.97;;;21.01;99.74
4392;BME280;2210;51.938;8.488;2022-09-13T13:11:26;99847.16;;;21.01;100.00
4392;BME280;2210;51.938;8.488;2022-09-13T13:19:32;99832.06;;;21.11;100.00
4392;BME280;2210;51.938;8.488;2022-09-13T13:23:37;99843.28;;;21.19;99.83
4392;BME280;2210;51.938;8.488;2022-09-13T13:27:40;99839.97;;;21.17;99.34
4392;BME280;2210;51.938;8.488;2022-09-13T13:31:43;99838.16;;;21.21;99.58
4392;BME280;2210;51.938;8.488;2022-09-13T13:35:44;99840.50;;;21.37;99.93
4392;BME280;2210;51.938;8.488;2022-09-13T13:39:46;99835.56;;;21.43;96.83
4392;BME280;2210;51.938;8.488;2022-09-13T13:43:47;99834.09;;;21.45;96.82
4392;BME280;2210;51.938;8.488;2022-09-13T13:48:07;99837.72;;;21.46;96.69
4392;BME280;2210;51.938;8.488;2022-09-13T13:56:26;99833.00;;;21.64;96.89
4392;BME280;2210;51.938;8.488;2022-09-13T14:00:29;99823.25;;;21.70;93.47
4392;BME280;2210;51.938;8.488;2022-09-13T14:17:52;99824.38;;;21.86;92.46
4392;BME280;2210;51.938;8.488;2022-09-13T14:22:08;99814.16;;;21.90;92.27
4392;BME280;2210;51.938;8.488;2022-09-13T14:26:11;99817.16;;;21.85;89.11
4392;BME280;2210;51.938;8.488;2022-09-13T14:30:18;99813.53;;;21.76;90.60
4392;BME280;2210;51.938;8.488;2022-09-13T14:34:31;99804.44;;;21.79;91.49
4392;BME280;2210;51.938;8.488;2022-09-13T14:38:33;99807.25;;;21.79;90.88
4392;BME280;2210;51.938;8.488;2022-09-13T14:42:43;99807.72;;;21.90;89.92
4392;BME280;2210;51.938;8.488;2022-09-13T14:47:00;99804.75;;;21.95;92.00
4392;BME280;2210;51.938;8.488;2022-09-13T14:51:15;99796.81;;;21.97;89.00
4392;BME280;2210;51.938;8.488;2022-09-13T14:55:25;99791.22;;;21.88;88.76
4392;BME280;2210;51.938;8.488;2022-09-13T14:59:30;99802.28;;;21.94;90.02
4392;BME280;2210;51.938;8.488;2022-09-13T15:03:32;99800.63;;;21.93;89.39
4392;BME280;2210;51.938;8.488;2022-09-13T15:07:35;99798.81;;;21.97;90.11
4392;BME280;2210;51.938;8.488;2022-09-13T15:11:55;99784.94;;;22.00;87.86
4392;BME280;2210;51.938;8.488;2022-09-13T15:15:56;99788.91;;;21.99;89.62
4392;BME280;2210;51.938;8.488;2022-09-13T15:20:04;99783.25;;;22.08;88.24
4392;BME280;2210;51.938;8.488;2022-09-13T15:24:05;99783.25;;;22.08;87.30
4392;BME280;2210;51.938;8.488;2022-09-13T15:28:20;99788.41;;;22.06;85.96
4392;BME280;2210;51.938;8.488;2022-09-13T15:32:23;99792.69;;;21.95;86.54
4392;BME280;2210;51.938;8.488;2022-09-13T15:36:27;99786.94;;;21.91;86.94
4392;BME280;2210;51.938;8.488;2022-09-13T15:40:29;99788.06;;;21.99;87.08
4392;BME280;2210;51.938;8.488;2022-09-13T15:44:39;99787.72;;;22.09;84.18
4392;BME280;2210;51.938;8.488;2022-09-13T15:48:43;99781.63;;;22.07;83.54
4392;BME280;2210;51.938;8.488;2022-09-13T15:52:45;99782.91;;;22.10;83.12
4392;BME280;2210;51.938;8.488;2022-09-13T15:56:46;99779.81;;;22.02;85.20
4392;BME280;2210;51.938;8.488;2022-09-13T16:00:46;99788.41;;;21.88;86.17
4392;BME280;2210;51.938;8.488;2022-09-13T16:04:47;99791.22;;;21.80;87.43
4392;BME280;2210;51.938;8.488;2022-09-13T16:08:47;99786.94;;;21.82;87.91
4392;BME280;2210;51.938;8.488;2022-09-13T16:12:48;99784.47;;;21.89;86.57
4392;BME280;2210;51.938;8.488;2022-09-13T16:16:48;99794.50;;;21.90;86.22
4392;BME280;2210;51.938;8.488;2022-09-13T16:20:49;99789.75;;;21.91;86.46
4392;BME280;2210;51.938;8.488;2022-09-13T16:24:49;99774.72;;;21.78;85.30
4392;BME280;2210;51.938;8.488;2022-09-13T16:28:50;99778.38;;;21.79;84.90
4392;BME280;2210;51.938;8.488;2022-09-13T16:32:50;99783.00;;;21.75;84.50
4392;BME280;2210;51.938;8.488;2022-09-13T16:36:50;99781.50;;;21.68;84.71
4392;BME280;2210;51.938;8.488;2022-09-13T16:40:51;99778.03;;;21.63;84.54
4392;BME280;2210;51.938;8.488;2022-09-13T16:44:51;99769.97;;;21.61;83.97
4392;BME280;2210;51.938;8.488;2022-09-13T16:48:52;99766.81;;;21.54;85.26
4392;BME280;2210;51.938;8.488;2022-09-13T16:52:55;99758.91;;;21.56;85.41
4392;BME280;2210;51.938;8.488;2022-09-13T16:56:56;99760.03;;;21.46;86.76
4392;BME280;2210;51.938;8.488;2022-09-13T17:00:57;99767.28;;;21.30;88.43
4392;BME280;2210;51.938;8.488;2022-09-13T17:05:00;99767.28;;;21.30;86.50
4392;BME280;2210;51.938;8.488;2022-09-13T17:09:04;99769.91;;;21.26;86.48
4392;BME280;2210;51.938;8.488;2022-09-13T17:13:05;99771.03;;;21.08;88.12
4392;BME280;2210;51.938;8.488;2022-09-13T17:17:05;99772.34;;;21.01;88.88
4392;BME280;2210;51.938;8.488;2022-09-13T17:21:06;99779.91;;;20.92;90.18
4392;BME280;2210;51.938;8.488;2022-09-13T17:25:07;99777.78;;;20.98;88.43
4392;BME280;2210;51.938;8.488;2022-09-13T17:29:09;99782.66;;;20.83;89.47
4392;BME280;2210;51.938;8.488;2022-09-13T17:33:09;99795.31;;;20.72;91.89
4392;BME280;2210;51.938;8.488;2022-09-13T17:37:10;99784.78;;;20.78;90.67
4392;BME280;2210;51.938;8.488;2022-09-13T17:41:16;99790.75;;;20.53;93.55
4392;BME280;2210;51.938;8.488;2022-09-13T17:45:16;99792.06;;;20.47;94.20
4392;BME280;2210;51.938;8.488;2022-09-13T17:49:17;99791.00;;;20.34;95.18
4392;BME280;2210;51.938;8.488;2022-09-13T17:53:17;99782.44;;;20.31;95.64
4392;BME280;2210;51.938;8.488;2022-09-13T17:57:17;99787.63;;;20.15;96.61
4392;BME280;2210;51.938;8.488;2022-09-13T18:01:18;99788.75;;;20.14;97.26
4392;BME280;2210;51.938;8.488;2022-09-13T18:05:18;99789.34;;;20.02;96.92
4392;BME280;2210;51.938;8.488;2022-09-13T18:09:19;99801.28;;;19.94;96.60
4392;BME280;2210;51.938;8.488;2022-09-13T18:13:20;99798.94;;;19.87;97.24
4392;BME280;2210;51.938;8.488;2022-09-13T18:17:21;99801.13;;;19.76;95.75
4392;BME280;2210;51.938;8.488;2022-09-13T18:21:23;99801.78;;;19.73;92.97
4392;BME280;2210;51.938;8.488;2022-09-13T18:25:24;99803.22;;;19.70;92.11
4392;BME280;2210;51.938;8.488;2022-09-13T18:29:25;99796.50;;;19.71;90.14
4392;BME280;2210;51.938;8.488;2022-09-13T18:33:28;99799.75;;;19.65;88.58
4392;BME280;2210;51.938;8.488;2022-09-13T18:37:29;99799.09;;;19.68;88.33
4392;BME280;2210;51.938;8.488;2022-09-13T18:41:37;99800.75;;;19.69;88.53
4392;BME280;2210;51.938;8.488;2022-09-13T18:45:40;99803.28;;;19.57;90.92
4392;BME280;2210;51.938;8.488;2022-09-13T18:49:41;99802.69;;;19.46;91.82
4392;BME280;2210;51.938;8.488;2022-09-13T18:53:41;99808.72;;;19.39;90.46
4392;BME280;2210;51.938;8.488;2022-09-13T18:57:41;99814.25;;;19.30;90.91
4392;BME280;2210;51.938;8.488;2022-09-13T19:01:42;99809.06;;;19.24;89.67
4392;BME280;2210;51.938;8.488;2022-09-13T19:05:43;99821.88;;;19.25;90.46
4392;BME280;2210;51.938;8.488;2022-09-13T19:09:43;99820.78;;;19.12;90.96
4392;BME280;2210;51.938;8.488;2022-09-13T19:13:43;99821.19;;;19.05;91.67
4392;BME280;2210;51.938;8.488;2022-09-13T19:17:43;99824.41;;;18.98;92.96
4392;BME280;2210;51.938;8.488;2022-09-13T19:21:44;99815.81;;;18.95;91.90
4392;BME280;2210;51.938;8.488;2022-09-13T19:25:44;99820.81;;;18.98;93.04
4392;BME280;2210;51.938;8.488;2022-09-13T19:29:45;99822.84;;;18.92;91.39
4392;BME280;2210;51.938;8.488;2022-09-13T19:33:45;99822.66;;;18.89;92.10
4392;BME280;2210;51.938;8.488;2022-09-13T19:37:46;99811.03;;;18.81;90.63
4392;BME280;2210;51.938;8.488;2022-09-13T19:41:46;99808.56;;;18.80;89.19
4392;BME280;2210;51.938;8.488;2022-09-13T19:46:00;99810.22;;;18.81;89.23
4392;BME280;2210;51.938;8.488;2022-09-13T19:50:01;99817.56;;;18.77;88.19
4392;BME280;2210;51.938;8.488;2022-09-13T19:54:02;99817.97;;;18.70;89.01
4392;BME280;2210;51.938;8.488;2022-09-13T19:58:03;99826.75;;;18.63;88.36
4392;BME280;2210;51.938;8.488;2022-09-13T20:02:04;99816.94;;;18.66;87.19
4392;BME280;2210;51.938;8.488;2022-09-13T20:06:07;99804.19;;;18.46;86.28
4392;BME280;2210;51.938;8.488;2022-09-13T20:10:07;99815.16;;;18.56;86.28
4392;BME280;2210;51.938;8.488;2022-09-13T20:14:08;99809.56;;;18.42;84.54
4392;BME280;2210;51.938;8.488;2022-09-13T20:18:08;99815.34;;;18.46;82.59
4392;BME280;2210;51.938;8.488;2022-09-13T20:22:14;99827.13;;;18.43;82.31
4392;BME280;2210;51.938;8.488;2022-09-13T20:26:19;99832.09;;;18.32;82.19
4392;BME280;2210;51.938;8.488;2022-09-13T20:30:19;99831.47;;;18.35;82.71
4392;BME280;2210;51.938;8.488;2022-09-13T20:34:20;99838.47;;;18.32;82.03
4392;BME280;2210;51.938;8.488;2022-09-13T20:38:20;99844.66;;;18.15;83.37
4392;BME280;2210;51.938;8.488;2022-09-13T20:42:21;99831.41;;;18.07;84.11
4392;BME280;2210;51.938;8.488;2022-09-13T20:46:21;99832.00;;;18.04;84.47
4392;BME280;2210;51.938;8.488;2022-09-13T20:50:21;99826.84;;;17.97;85.20
4392;BME280;2210;51.938;8.488;2022-09-13T20:54:22;99825.22;;;17.91;85.03
4392;BME280;2210;51.938;8.488;2022-09-13T20:58:22;99812.66;;;17.75;85.05
4392;BME280;2210;51.938;8.488;2022-09-13T21:02:25;99829.16;;;17.71;85.38
4392;BME280;2210;51.938;8.488;2022-09-13T21:06:28;99821.84;;;17.75;85.62
4392;BME280;2210;51.938;8.488;2022-09-13T21:10:28;99828.28;;;17.57;85.94
4392;BME280;2210;51.938;8.488;2022-09-13T21:14:31;99830.94;;;17.62;85.47
4392;BME280;2210;51.938;8.488;2022-09-13T21:18:32;99828.16;;;17.43;85.86
4392;BME280;2210;51.938;8.488;2022-09-13T21:22:33;99831.19;;;17.46;85.16
4392;BME280;2210;51.938;8.488;2022-09-13T21:26:35;99837.53;;;17.52;84.97
4392;BME280;2210;51.938;8.488;2022-09-13T21:30:35;99838.13;;;17.49;84.78
4392;BME280;2210;51.938;8.488;2022-09-13T21:34:36;99833.97;;;17.46;84.84
4392;BME280;2210;51.938;8.488;2022-09-13T21:38:38;99841.59;;;17.41;85.16
4392;BME280;2210;51.938;8.488;2022-09-13T21:42:38;99828.63;;;17.69;82.97
4392;BME280;2210;51.938;8.488;2022-09-13T21:46:39;99820.78;;;17.52;83.04
4392;BME280;2210;51.938;8.488;2022-09-13T21:50:40;99821.63;;;17.52;82.05
4392;BME280;2210;51.938;8.488;2022-09-13T21:54:40;99813.34;;;17.47;81.73
4392;BME280;2210;51.938;8.488;2022-09-13T21:58:41;99816.81;;;17.39;80.83
4392;BME280;2210;51.938;8.488;2022-09-13T22:02:46;99815.75;;;17.35;80.04
4392;BME280;2210;51.938;8.488;2022-09-13T22:06:48;99817.31;;;17.41;81.45
4392;BME280;2210;51.938;8.488;2022-09-13T22:10:50;99825.25;;;17.34;82.50
4392;BME280;2210;51.938;8.488;2022-09-13T22:14:50;99825.53;;;17.32;81.87
4392;BME280;2210;51.938;8.488;2022-09-13T22:18:57;99819.59;;;17.20;82.18
4392;BME280;2210;51.938;8.488;2022-09-13T22:22:58;99814.59;;;17.17;80.94
4392;BME280;2210;51.938;8.488;2022-09-13T22:26:58;99809.78;;;17.23;79.99
4392;BME280;2210;51.938;8.488;2022-09-13T22:31:07;99807.47;;;17.30;80.08
4392;BME280;2210;51.938;8.488;2022-09-13T22:35:07;99813.91;;;17.06;81.81
4392;BME280;2210;51.938;8.488;2022-09-13T22:39:13;99810.53;;;17.09;82.96
4392;BME280;2210;51.938;8.488;2022-09-13T22:43:13;99819.03;;;17.18;81.97
4392;BME280;2210;51.938;8.488;2022-09-13T22:47:13;99805.72;;;17.15;81.36
4392;BME280;2210;51.938;8.488;2022-09-13T22:51:15;99807.09;;;17.17;80.84
4392;BME280;2210;51.938;8.488;2022-09-13T22:55:16;99802.56;;;17.22;80.80
4392;BME280;2210;51.938;8.488;2022-09-13T22:59:19;99802.03;;;17.19;81.74
4392;BME280;2210;51.938;8.488;2022-09-13T23:03:20;99802.63;;;17.16;81.69
4392;BME280;2210;51.938;8.488;2022-09-13T23:07:20;99795.28;;;17.26;81.63
4392;BME280;2210;51.938;8.488;2022-09-13T23:11:23;99792.84;;;17.19;81.18
4392;BME280;2210;51.938;8.488;2022-09-13T23:15:24;99796.75;;;16.99;82.33
4392;BME280;2210;51.938;8.488;2022-09-13T23:19:24;99794.94;;;17.08;82.58
4392;BME280;2210;51.938;8.488;2022-09-13T23:23:27;99793.91;;;17.04;83.26
4392;BME280;2210;51.938;8.488;2022-09-13T23:27:27;99795.00;;;17.03;83.24
4392;BME280;2210;51.938;8.488;2022-09-13T23:31:33;99783.94;;;16.98;82.92
4392;BME280;2210;51.938;8.488;2022-09-13T23:35:33;99787.25;;;17.00;84.05
4392;BME280;2210;51.938;8.488;2022-09-13T23:39:35;99792.47;;;17.07;83.00
4392;BME280;2210;51.938;8.488;2022-09-13T23:43:36;99786.59;;;17.27;81.67
4392;BME280;2210;51.938;8.488;2022-09-13T23:47:36;99783.50;;;17.29;81.50
4392;BME280;2210;51.938;8.488;2022-09-13T23:51:37;99784.13;;;17.26;81.82
4392;BME280;2210;51.938;8.488;2022-09-13T23:55:37;99782.53;;;17.19;83.05
4392;BME280;2210;51.938;8.488;2022-09-13T23:59:37;99766.34;;;17.22;81.92
